sensor_id;sensor_type;location;lat;lon;timestamp;temperature;humidity
21834;DHT22;11079;51.092;3.458;2023-07-08T00:01:35;21.30;99.90
21834;DHT22;11079;51.092;3.458;2023-07-08T00:04:01;21.30;99.90
21834;DHT22;11079;51.092;3.458;2023-07-08T00:06:28;21.40;99.90
21834;DHT22;11079;51.092;3.458;2023-07-08T00:08:54;21.50;99.90
21834;DHT22;11079;51.092;3.458;2023-07-08T00:11:20;21.50;99.90
21834;DHT22;11079;51.092;3.458;2023-07-08T00:13:50;21.50;99.90
21834;DHT22;11079;51.092;3.458;2023-07-08T00:16:37;21.60;99.90
21834;DHT22;11079;51.092;3.458;2023-07-08T00:19:08;21.60;99.90
21834;DHT22;11079;51.092;3.458;2023-07-08T00:24:51;21.50;99.90
21834;DHT22;11079;51.092;3.458;2023-07-08T00:28:26;21.40;99.90
21834;DHT22;11079;51.092;3.458;2023-07-08T00:30:55;21.20;99.90
21834;DHT22;11079;51.092;3.458;2023-07-08T00:33:27;21.20;99.90
21834;DHT22;11079;51.092;3.458;2023-07-08T00:35:56;21.00;99.90
21834;DHT22;11079;51.092;3.458;2023-07-08T00:38:28;20.80;99.90
21834;DHT22;11079;51.092;3.458;2023-07-08T00:43:54;20.80;99.90
21834;DHT22;11079;51.092;3.458;2023-07-08T00:46:43;20.80;99.90
21834;DHT22;11079;51.092;3.458;2023-07-08T00:49:36;20.80;99.90
21834;DHT22;11079;51.092;3.458;2023-07-08T00:52:26;20.70;99.90
21834;DHT22;11079;51.092;3.458;2023-07-08T00:54:54;20.50;99.90
21834;DHT22;11079;51.092;3.458;2023-07-08T00:57:22;20.50;99.90
21834;DHT22;11079;51.092;3.458;2023-07-08T00:59:59;20.40;99.90
21834;DHT22;11079;51.092;3.458;2023-07-08T01:02:29;20.50;99.90
21834;DHT22;11079;51.092;3.458;2023-07-08T01:05:04;20.50;99.90
21834;DHT22;11079;51.092;3.458;2023-07-08T01:07:30;20.60;99.90
21834;DHT22;11079;51.092;3.458;2023-07-08T01:10:02;20.70;99.90
21834;DHT22;11079;51.092;3.458;2023-07-08T01:12:37;20.70;99.90
21834;DHT22;11079;51.092;3.458;2023-07-08T01:15:06;20.50;99.90
21834;DHT22;11079;51.092;3.458;2023-07-08T01:17:32;20.50;99.90
21834;DHT22;11079;51.092;3.458;2023-07-08T01:20:02;20.30;99.90
21834;DHT22;11079;51.092;3.458;2023-07-08T01:22:32;20.30;99.90
21834;DHT22;11079;51.092;3.458;2023-07-08T01:24:58;20.20;99.90
21834;DHT22;11079;51.092;3.458;2023-07-08T01:27:30;20.20;99.90
21834;DHT22;11079;51.092;3.458;2023-07-08T01:29:58;20.20;99.90
21834;DHT22;11079;51.092;3.458;2023-07-08T01:32:24;20.30;99.90
21834;DHT22;11079;51.092;3.458;2023-07-08T01:35:00;20.20;99.90
21834;DHT22;11079;51.092;3.458;2023-07-08T01:37:37;20.10;99.90
21834;DHT22;11079;51.092;3.458;2023-07-08T01:42:47;20.10;99.90
21834;DHT22;11079;51.092;3.458;2023-07-08T01:45:15;20.20;99.90
21834;DHT22;11079;51.092;3.458;2023-07-08T01:47:48;20.10;99.90
21834;DHT22;11079;51.092;3.458;2023-07-08T01:50:16;20.20;99.90
21834;DHT22;11079;51.092;3.458;2023-07-08T01:52:42;20.20;99.90
21834;DHT22;11079;51.092;3.458;2023-07-08T01:55:08;20.20;99.90
21834;DHT22;11079;51.092;3.458;2023-07-08T01:57:33;20.20;99.90
21834;DHT22;11079;51.092;3.458;2023-07-08T01:59:59;20.20;99.90
21834;DHT22;11079;51.092;3.458;2023-07-08T02:02:25;20.10;99.90
21834;DHT22;11079;51.092;3.458;2023-07-08T02:04:51;20.00;99.90
21834;DHT22;11079;51.092;3.458;2023-07-08T02:07:16;19.90;99.90
21834;DHT22;11079;51.092;3.458;2023-07-08T02:09:42;19.90;99.90
21834;DHT22;11079;51.092;3.458;2023-07-08T02:12:08;19.70;99.90
21834;DHT22;11079;51.092;3.458;2023-07-08T02:14:33;19.70;99.90
21834;DHT22;11079;51.092;3.458;2023-07-08T02:16:59;19.60;99.90
21834;DHT22;11079;51.092;3.458;2023-07-08T02:19:25;19.60;99.90
21834;DHT22;11079;51.092;3.458;2023-07-08T02:21:51;19.70;99.90
21834;DHT22;11079;51.092;3.458;2023-07-08T02:24:20;19.60;99.90
21834;DHT22;11079;51.092;3.458;2023-07-08T02:26:47;19.50;99.90
21834;DHT22;11079;51.092;3.458;2023-07-08T02:29:13;19.50;99.90
21834;DHT22;11079;51.092;3.458;2023-07-08T02:31:39;19.40;99.90
21834;DHT22;11079;51.092;3.458;2023-07-08T02:34:04;19.40;99.90
21834;DHT22;11079;51.092;3.458;2023-07-08T02:36:33;19.30;99.90
21834;DHT22;11079;51.092;3.458;2023-07-08T02:39:04;19.30;99.90
21834;DHT22;11079;51.092;3.458;2023-07-08T02:41:31;19.40;99.90
21834;DHT22;11079;51.092;3.458;2023-07-08T02:43:56;19.40;99.90
21834;DHT22;11079;51.092;3.458;2023-07-08T02:46:22;19.40;99.90
21834;DHT22;11079;51.092;3.458;2023-07-08T02:48:47;19.40;99.90
21834;DHT22;11079;51.092;3.458;2023-07-08T02:51:13;19.40;99.90
21834;DHT22;11079;51.092;3.458;2023-07-08T02:53:39;19.40;99.90
21834;DHT22;11079;51.092;3.458;2023-07-08T02:56:04;19.50;99.90
21834;DHT22;11079;51.092;3.458;2023-07-08T02:58:30;19.50;99.90
21834;DHT22;11079;51.092;3.458;2023-07-08T03:00:56;19.50;99.90
21834;DHT22;11079;51.092;3.458;2023-07-08T03:03:29;19.40;99.90
21834;DHT22;11079;51.092;3.458;2023-07-08T03:06:02;19.40;99.90
21834;DHT22;11079;51.092;3.458;2023-07-08T03:08:29;19.40;99.90
21834;DHT22;11079;51.092;3.458;2023-07-08T03:10:59;19.30;99.90
21834;DHT22;11079;51.092;3.458;2023-07-08T03:13:25;19.40;99.90
21834;DHT22;11079;51.092;3.458;2023-07-08T03:15:51;19.40;99.90
21834;DHT22;11079;51.092;3.458;2023-07-08T03:18:17;19.40;99.90
21834;DHT22;11079;51.092;3.458;2023-07-08T03:20:47;19.30;99.90
21834;DHT22;11079;51.092;3.458;2023-07-08T03:23:13;19.20;99.90
21834;DHT22;11079;51.092;3.458;2023-07-08T03:25:39;19.10;99.90
21834;DHT22;11079;51.092;3.458;2023-07-08T03:28:05;19.20;99.90
21834;DHT22;11079;51.092;3.458;2023-07-08T03:30:40;19.20;99.90
21834;DHT22;11079;51.092;3.458;2023-07-08T03:33:05;19.00;99.90
21834;DHT22;11079;51.092;3.458;2023-07-08T03:35:31;18.90;99.90
21834;DHT22;11079;51.092;3.458;2023-07-08T03:37:57;18.90;99.90
21834;DHT22;11079;51.092;3.458;2023-07-08T03:40:22;18.90;99.90
21834;DHT22;11079;51.092;3.458;2023-07-08T03:42:48;19.00;99.90
21834;DHT22;11079;51.092;3.458;2023-07-08T03:45:14;18.90;99.90
21834;DHT22;11079;51.092;3.458;2023-07-08T03:47:39;19.00;99.90
21834;DHT22;11079;51.092;3.458;2023-07-08T03:50:06;18.90;99.90
21834;DHT22;11079;51.092;3.458;2023-07-08T03:52:32;19.00;99.90
21834;DHT22;11079;51.092;3.458;2023-07-08T03:54:58;18.90;99.90
21834;DHT22;11079;51.092;3.458;2023-07-08T03:57:23;18.90;99.90
21834;DHT22;11079;51.092;3.458;2023-07-08T03:59:49;19.00;99.90
21834;DHT22;11079;51.092;3.458;2023-07-08T04:02:14;19.00;99.90
21834;DHT22;11079;51.092;3.458;2023-07-08T04:04:40;19.00;99.90
21834;DHT22;11079;51.092;3.458;2023-07-08T04:07:06;18.90;99.90
21834;DHT22;11079;51.092;3.458;2023-07-08T04:09:32;18.90;99.90
21834;DHT22;11079;51.092;3.458;2023-07-08T04:11:58;19.00;99.90
21834;DHT22;11079;51.092;3.458;2023-07-08T04:14:25;19.10;99.90
21834;DHT22;11079;51.092;3.458;2023-07-08T04:16:54;18.90;99.90
21834;DHT22;11079;51.092;3.458;2023-07-08T04:19:23;18.90;99.90
21834;DHT22;11079;51.092;3.458;2023-07-08T04:21:49;18.80;99.90
21834;DHT22;11079;51.092;3.458;2023-07-08T04:24:16;18.80;99.90
21834;DHT22;11079;51.092;3.458;2023-07-08T04:26:44;18.90;99.90
21834;DHT22;11079;51.092;3.458;2023-07-08T04:29:16;18.80;99.90
21834;DHT22;11079;51.092;3.458;2023-07-08T04:31:42;18.90;99.90
21834;DHT22;11079;51.092;3.458;2023-07-08T04:34:10;18.90;99.90
21834;DHT22;11079;51.092;3.458;2023-07-08T04:36:36;18.90;99.90
21834;DHT22;11079;51.092;3.458;2023-07-08T04:39:03;18.90;99.90
21834;DHT22;11079;51.092;3.458;2023-07-08T04:41:29;18.90;99.90
21834;DHT22;11079;51.092;3.458;2023-07-08T04:43:54;19.10;99.90
21834;DHT22;11079;51.092;3.458;2023-07-08T04:49:01;19.50;99.90
21834;DHT22;11079;51.092;3.458;2023-07-08T04:51:27;19.60;99.90
21834;DHT22;11079;51.092;3.458;2023-07-08T04:53:53;19.80;99.90
21834;DHT22;11079;51.092;3.458;2023-07-08T04:56:18;20.60;99.90
21834;DHT22;11079;51.092;3.458;2023-07-08T04:58:44;21.60;99.90
21834;DHT22;11079;51.092;3.458;2023-07-08T05:01:11;22.70;99.90
21834;DHT22;11079;51.092;3.458;2023-07-08T05:03:37;23.40;99.90
21834;DHT22;11079;51.092;3.458;2023-07-08T05:06:02;24.20;99.90
21834;DHT22;11079;51.092;3.458;2023-07-08T05:08:28;24.90;99.90
21834;DHT22;11079;51.092;3.458;2023-07-08T05:10:53;25.50;99.90
21834;DHT22;11079;51.092;3.458;2023-07-08T05:13:20;26.00;99.90
21834;DHT22;11079;51.092;3.458;2023-07-08T05:15:45;26.60;99.90
21834;DHT22;11079;51.092;3.458;2023-07-08T05:18:13;27.00;99.90
21834;DHT22;11079;51.092;3.458;2023-07-08T05:20:42;27.40;99.90
21834;DHT22;11079;51.092;3.458;2023-07-08T05:23:37;27.70;99.90
21834;DHT22;11079;51.092;3.458;2023-07-08T05:26:30;27.80;99.90
21834;DHT22;11079;51.092;3.458;2023-07-08T05:29:09;27.90;99.90
21834;DHT22;11079;51.092;3.458;2023-07-08T05:31:39;28.10;99.90
21834;DHT22;11079;51.092;3.458;2023-07-08T05:34:22;28.30;99.90
21834;DHT22;11079;51.092;3.458;2023-07-08T05:37:07;28.60;99.90
21834;DHT22;11079;51.092;3.458;2023-07-08T05:39:34;29.00;99.90
21834;DHT22;11079;51.092;3.458;2023-07-08T05:42:00;29.60;99.90
21834;DHT22;11079;51.092;3.458;2023-07-08T05:44:48;30.30;99.90
21834;DHT22;11079;51.092;3.458;2023-07-08T05:47:44;30.80;99.60
21834;DHT22;11079;51.092;3.458;2023-07-08T05:50:24;31.00;98.10
21834;DHT22;11079;51.092;3.458;2023-07-08T05:52:53;31.20;97.80
21834;DHT22;11079;51.092;3.458;2023-07-08T05:58:46;31.40;95.90
21834;DHT22;11079;51.092;3.458;2023-07-08T06:01:49;31.80;95.00
21834;DHT22;11079;51.092;3.458;2023-07-08T06:04:38;32.30;94.50
21834;DHT22;11079;51.092;3.458;2023-07-08T06:07:07;32.50;93.10
21834;DHT22;11079;51.092;3.458;2023-07-08T06:12:57;33.30;91.40
21834;DHT22;11079;51.092;3.458;2023-07-08T06:16:28;33.20;89.70
21834;DHT22;11079;51.092;3.458;2023-07-08T06:18:57;32.10;90.50
21834;DHT22;11079;51.092;3.458;2023-07-08T06:21:24;32.10;91.40
21834;DHT22;11079;51.092;3.458;2023-07-08T06:23:49;32.30;90.90
21834;DHT22;11079;51.092;3.458;2023-07-08T06:26:15;33.10;90.90
21834;DHT22;11079;51.092;3.458;2023-07-08T06:28:45;33.70;89.80
21834;DHT22;11079;51.092;3.458;2023-07-08T06:31:20;34.30;88.10
21834;DHT22;11079;51.092;3.458;2023-07-08T06:33:46;34.70;87.40
21834;DHT22;11079;51.092;3.458;2023-07-08T06:36:11;35.10;85.30
21834;DHT22;11079;51.092;3.458;2023-07-08T06:38:38;34.50;83.40
21834;DHT22;11079;51.092;3.458;2023-07-08T06:41:03;33.90;85.20
21834;DHT22;11079;51.092;3.458;2023-07-08T06:43:29;32.70;88.50
21834;DHT22;11079;51.092;3.458;2023-07-08T06:45:54;32.30;90.30
21834;DHT22;11079;51.092;3.458;2023-07-08T06:51:16;34.70;87.90
21834;DHT22;11079;51.092;3.458;2023-07-08T06:53:42;35.80;83.10
21834;DHT22;11079;51.092;3.458;2023-07-08T06:56:08;36.30;80.60
21834;DHT22;11079;51.092;3.458;2023-07-08T06:58:34;36.40;78.80
21834;DHT22;11079;51.092;3.458;2023-07-08T07:00:59;36.10;78.90
21834;DHT22;11079;51.092;3.458;2023-07-08T07:03:28;37.00;78.50
21834;DHT22;11079;51.092;3.458;2023-07-08T07:06:16;37.40;75.30
21834;DHT22;11079;51.092;3.458;2023-07-08T07:09:20;37.00;76.30
21834;DHT22;11079;51.092;3.458;2023-07-08T07:11:48;36.50;77.00
21834;DHT22;11079;51.092;3.458;2023-07-08T07:14:14;36.70;75.90
21834;DHT22;11079;51.092;3.458;2023-07-08T07:16:40;37.40;74.90
21834;DHT22;11079;51.092;3.458;2023-07-08T07:19:06;37.30;75.60
21834;DHT22;11079;51.092;3.458;2023-07-08T07:21:32;36.90;75.60
21834;DHT22;11079;51.092;3.458;2023-07-08T07:23:58;37.90;72.30
21834;DHT22;11079;51.092;3.458;2023-07-08T07:26:23;38.70;70.20
21834;DHT22;11079;51.092;3.458;2023-07-08T07:28:49;38.10;68.70
21834;DHT22;11079;51.092;3.458;2023-07-08T07:31:14;37.00;70.90
21834;DHT22;11079;51.092;3.458;2023-07-08T07:33:40;37.60;70.20
21834;DHT22;11079;51.092;3.458;2023-07-08T07:36:05;37.90;69.50
21834;DHT22;11079;51.092;3.458;2023-07-08T07:38:33;38.50;69.70
21834;DHT22;11079;51.092;3.458;2023-07-08T07:40:59;39.40;68.70
21834;DHT22;11079;51.092;3.458;2023-07-08T07:43:25;40.70;66.00
21834;DHT22;11079;51.092;3.458;2023-07-08T07:45:52;40.80;64.70
21834;DHT22;11079;51.092;3.458;2023-07-08T07:48:19;41.80;63.70
21834;DHT22;11079;51.092;3.458;2023-07-08T07:50:49;40.70;61.20
21834;DHT22;11079;51.092;3.458;2023-07-08T07:53:17;41.00;62.20
21834;DHT22;11079;51.092;3.458;2023-07-08T07:55:42;41.70;60.60
21834;DHT22;11079;51.092;3.458;2023-07-08T07:58:08;42.20;59.60
21834;DHT22;11079;51.092;3.458;2023-07-08T08:00:39;42.40;58.30
21834;DHT22;11079;51.092;3.458;2023-07-08T08:03:05;42.40;57.80
21834;DHT22;11079;51.092;3.458;2023-07-08T08:05:31;42.40;57.30
21834;DHT22;11079;51.092;3.458;2023-07-08T08:07:56;42.10;58.30
21834;DHT22;11079;51.092;3.458;2023-07-08T08:10:22;42.10;57.20
21834;DHT22;11079;51.092;3.458;2023-07-08T08:12:47;42.10;57.70
21834;DHT22;11079;51.092;3.458;2023-07-08T08:15:17;43.10;57.50
21834;DHT22;11079;51.092;3.458;2023-07-08T08:17:46;43.90;56.30
21834;DHT22;11079;51.092;3.458;2023-07-08T08:20:14;44.10;55.60
21834;DHT22;11079;51.092;3.458;2023-07-08T08:22:40;44.40;54.40
21834;DHT22;11079;51.092;3.458;2023-07-08T08:25:08;44.70;54.20
21834;DHT22;11079;51.092;3.458;2023-07-08T08:27:35;45.00;54.50
21834;DHT22;11079;51.092;3.458;2023-07-08T08:30:02;45.40;53.70
21834;DHT22;11079;51.092;3.458;2023-07-08T08:32:28;44.90;53.40
21834;DHT22;11079;51.092;3.458;2023-07-08T08:35:00;45.00;53.30
21834;DHT22;11079;51.092;3.458;2023-07-08T08:37:26;44.80;53.00
21834;DHT22;11079;51.092;3.458;2023-07-08T08:39:51;44.10;53.10
21834;DHT22;11079;51.092;3.458;2023-07-08T08:42:33;44.60;52.40
21834;DHT22;11079;51.092;3.458;2023-07-08T08:45:17;43.60;53.00
21834;DHT22;11079;51.092;3.458;2023-07-08T08:47:49;44.70;52.60
21834;DHT22;11079;51.092;3.458;2023-07-08T08:50:24;44.50;51.40
21834;DHT22;11079;51.092;3.458;2023-07-08T08:52:52;44.40;53.30
21834;DHT22;11079;51.092;3.458;2023-07-08T08:55:21;45.50;52.50
21834;DHT22;11079;51.092;3.458;2023-07-08T09:03:21;46.90;50.50
21834;DHT22;11079;51.092;3.458;2023-07-08T09:05:49;47.10;50.20
21834;DHT22;11079;51.092;3.458;2023-07-08T09:08:31;47.40;49.80
21834;DHT22;11079;51.092;3.458;2023-07-08T09:11:05;47.90;49.00
21834;DHT22;11079;51.092;3.458;2023-07-08T09:13:46;47.90;48.40
21834;DHT22;11079;51.092;3.458;2023-07-08T09:16:50;48.10;48.00
21834;DHT22;11079;51.092;3.458;2023-07-08T09:23:20;48.70;46.80
21834;DHT22;11079;51.092;3.458;2023-07-08T09:26:13;48.20;45.60
21834;DHT22;11079;51.092;3.458;2023-07-08T09:28:43;48.60;45.40
21834;DHT22;11079;51.092;3.458;2023-07-08T09:33:46;48.90;44.80
21834;DHT22;11079;51.092;3.458;2023-07-08T09:36:23;48.70;45.20
21834;DHT22;11079;51.092;3.458;2023-07-08T09:38:51;49.50;45.20
21834;DHT22;11079;51.092;3.458;2023-07-08T09:41:31;49.90;46.80
21834;DHT22;11079;51.092;3.458;2023-07-08T09:44:23;49.40;46.80
21834;DHT22;11079;51.092;3.458;2023-07-08T09:46:55;49.30;46.60
21834;DHT22;11079;51.092;3.458;2023-07-08T09:49:29;49.30;47.60
21834;DHT22;11079;51.092;3.458;2023-07-08T09:51:56;49.00;47.10
21834;DHT22;11079;51.092;3.458;2023-07-08T09:54:23;49.40;47.00
21834;DHT22;11079;51.092;3.458;2023-07-08T09:57:03;50.40;45.20
21834;DHT22;11079;51.092;3.458;2023-07-08T09:59:46;49.80;44.00
21834;DHT22;11079;51.092;3.458;2023-07-08T10:05:06;50.20;43.60
21834;DHT22;11079;51.092;3.458;2023-07-08T10:07:33;49.70;43.30
21834;DHT22;11079;51.092;3.458;2023-07-08T10:10:02;49.30;44.00
21834;DHT22;11079;51.092;3.458;2023-07-08T10:12:30;49.90;43.40
21834;DHT22;11079;51.092;3.458;2023-07-08T10:15:15;50.20;43.60
21834;DHT22;11079;51.092;3.458;2023-07-08T10:17:43;50.40;43.30
21834;DHT22;11079;51.092;3.458;2023-07-08T10:20:13;50.20;43.10
21834;DHT22;11079;51.092;3.458;2023-07-08T10:25:44;49.70;43.60
21834;DHT22;11079;51.092;3.458;2023-07-08T10:28:34;50.40;43.10
21834;DHT22;11079;51.092;3.458;2023-07-08T10:36:51;50.60;42.80
21834;DHT22;11079;51.092;3.458;2023-07-08T10:45:28;50.70;41.80
21834;DHT22;11079;51.092;3.458;2023-07-08T10:56:54;51.00;41.70
21834;DHT22;11079;51.092;3.458;2023-07-08T11:08:00;50.70;40.70
21834;DHT22;11079;51.092;3.458;2023-07-08T11:10:38;51.50;40.40
21834;DHT22;11079;51.092;3.458;2023-07-08T11:13:13;51.70;40.80
21834;DHT22;11079;51.092;3.458;2023-07-08T11:16:00;52.40;39.90
21834;DHT22;11079;51.092;3.458;2023-07-08T11:18:41;52.80;39.00
21834;DHT22;11079;51.092;3.458;2023-07-08T11:21:12;52.30;39.10
21834;DHT22;11079;51.092;3.458;2023-07-08T11:26:29;51.30;39.60
21834;DHT22;11079;51.092;3.458;2023-07-08T11:28:58;50.80;40.30
21834;DHT22;11079;51.092;3.458;2023-07-08T11:31:25;51.40;41.30
21834;DHT22;11079;51.092;3.458;2023-07-08T11:33:53;51.80;39.60
21834;DHT22;11079;51.092;3.458;2023-07-08T11:36:21;52.20;39.90
21834;DHT22;11079;51.092;3.458;2023-07-08T11:38:48;52.40;39.60
21834;DHT22;11079;51.092;3.458;2023-07-08T11:41:17;51.50;39.50
21834;DHT22;11079;51.092;3.458;2023-07-08T11:43:48;50.90;40.00
21834;DHT22;11079;51.092;3.458;2023-07-08T11:46:20;50.20;40.10
21834;DHT22;11079;51.092;3.458;2023-07-08T11:48:48;49.70;40.50
21834;DHT22;11079;51.092;3.458;2023-07-08T11:51:40;49.00;41.30
21834;DHT22;11079;51.092;3.458;2023-07-08T11:56:57;46.90;41.90
21834;DHT22;11079;51.092;3.458;2023-07-08T11:59:25;45.40;42.10
21834;DHT22;11079;51.092;3.458;2023-07-08T12:02:00;45.20;43.10
21834;DHT22;11079;51.092;3.458;2023-07-08T12:04:34;45.70;43.90
21834;DHT22;11079;51.092;3.458;2023-07-08T12:07:11;45.00;43.30
21834;DHT22;11079;51.092;3.458;2023-07-08T12:12:36;42.90;45.00
21834;DHT22;11079;51.092;3.458;2023-07-08T12:15:31;41.40;46.10
21834;DHT22;11079;51.092;3.458;2023-07-08T12:18:02;40.00;48.20
21834;DHT22;11079;51.092;3.458;2023-07-08T12:20:56;39.70;48.00
21834;DHT22;11079;51.092;3.458;2023-07-08T12:23:36;39.30;49.30
21834;DHT22;11079;51.092;3.458;2023-07-08T12:26:43;39.50;49.90
21834;DHT22;11079;51.092;3.458;2023-07-08T12:29:37;39.40;49.50
21834;DHT22;11079;51.092;3.458;2023-07-08T12:33:00;38.90;50.10
21834;DHT22;11079;51.092;3.458;2023-07-08T12:36:32;38.80;51.00
21834;DHT22;11079;51.092;3.458;2023-07-08T12:39:19;38.10;52.40
21834;DHT22;11079;51.092;3.458;2023-07-08T12:46:24;37.40;53.40
21834;DHT22;11079;51.092;3.458;2023-07-08T12:49:15;37.30;53.10
21834;DHT22;11079;51.092;3.458;2023-07-08T12:52:26;37.20;54.20
21834;DHT22;11079;51.092;3.458;2023-07-08T12:56:01;37.20;53.60
21834;DHT22;11079;51.092;3.458;2023-07-08T12:59:00;37.10;53.80
21834;DHT22;11079;51.092;3.458;2023-07-08T13:02:27;37.10;54.40
21834;DHT22;11079;51.092;3.458;2023-07-08T13:06:01;36.90;53.80
21834;DHT22;11079;51.092;3.458;2023-07-08T13:08:45;37.00;54.90
21834;DHT22;11079;51.092;3.458;2023-07-08T13:14:05;37.00;55.30
21834;DHT22;11079;51.092;3.458;2023-07-08T13:17:17;37.40;54.80
21834;DHT22;11079;51.092;3.458;2023-07-08T13:24:10;37.50;55.80
21834;DHT22;11079;51.092;3.458;2023-07-08T13:27:23;38.30;55.10
21834;DHT22;11079;51.092;3.458;2023-07-08T13:31:21;39.20;53.10
21834;DHT22;11079;51.092;3.458;2023-07-08T13:37:20;40.00;51.50
21834;DHT22;11079;51.092;3.458;2023-07-08T13:39:53;40.60;52.40
21834;DHT22;11079;51.092;3.458;2023-07-08T13:43:01;40.40;51.90
21834;DHT22;11079;51.092;3.458;2023-07-08T13:49:45;39.30;53.00
21834;DHT22;11079;51.092;3.458;2023-07-08T13:52:56;38.10;58.80
21834;DHT22;11079;51.092;3.458;2023-07-08T13:55:57;38.30;61.40
21834;DHT22;11079;51.092;3.458;2023-07-08T13:58:31;38.90;60.80
21834;DHT22;11079;51.092;3.458;2023-07-08T14:01:24;38.90;58.30
21834;DHT22;11079;51.092;3.458;2023-07-08T14:03:55;38.90;59.20
21834;DHT22;11079;51.092;3.458;2023-07-08T14:07:07;38.80;59.60
21834;DHT22;11079;51.092;3.458;2023-07-08T14:24:11;36.10;62.40
21834;DHT22;11079;51.092;3.458;2023-07-08T14:26:57;35.60;64.30
21834;DHT22;11079;51.092;3.458;2023-07-08T14:33:38;35.20;66.00
21834;DHT22;11079;51.092;3.458;2023-07-08T14:45:55;35.00;66.30
21834;DHT22;11079;51.092;3.458;2023-07-08T14:52:31;35.00;66.00
21834;DHT22;11079;51.092;3.458;2023-07-08T14:55:17;34.50;65.60
21834;DHT22;11079;51.092;3.458;2023-07-08T14:58:26;34.20;67.50
21834;DHT22;11079;51.092;3.458;2023-07-08T15:01:52;34.30;68.40
21834;DHT22;11079;51.092;3.458;2023-07-08T15:05:11;34.30;68.80
21834;DHT22;11079;51.092;3.458;2023-07-08T15:21:33;34.10;68.70
21834;DHT22;11079;51.092;3.458;2023-07-08T16:43:07;33.60;71.60
21834;DHT22;11079;51.092;3.458;2023-07-08T16:52:00;33.60;71.20
21834;DHT22;11079;51.092;3.458;2023-07-08T16:54:42;33.30;71.60
21834;DHT22;11079;51.092;3.458;2023-07-08T16:57:18;33.20;74.00
21834;DHT22;11079;51.092;3.458;2023-07-08T17:00:08;33.10;74.10
21834;DHT22;11079;51.092;3.458;2023-07-08T17:05:33;32.70;73.40
21834;DHT22;11079;51.092;3.458;2023-07-08T17:08:42;32.50;75.60
21834;DHT22;11079;51.092;3.458;2023-07-08T17:11:08;32.30;75.50
21834;DHT22;11079;51.092;3.458;2023-07-08T17:13:58;32.20;77.80
21834;DHT22;11079;51.092;3.458;2023-07-08T17:16:43;32.10;77.60
21834;DHT22;11079;51.092;3.458;2023-07-08T17:19:22;32.00;77.80
21834;DHT22;11079;51.092;3.458;2023-07-08T17:22:02;31.90;79.20
21834;DHT22;11079;51.092;3.458;2023-07-08T17:24:41;31.80;79.60
21834;DHT22;11079;51.092;3.458;2023-07-08T17:27:17;31.70;80.60
21834;DHT22;11079;51.092;3.458;2023-07-08T17:29:43;31.60;81.50
21834;DHT22;11079;51.092;3.458;2023-07-08T17:32:39;31.60;80.70
21834;DHT22;11079;51.092;3.458;2023-07-08T17:35:15;31.50;80.70
21834;DHT22;11079;51.092;3.458;2023-07-08T17:38:08;31.50;80.20
21834;DHT22;11079;51.092;3.458;2023-07-08T17:40:53;31.40;82.10
21834;DHT22;11079;51.092;3.458;2023-07-08T17:43:27;31.40;83.70
21834;DHT22;11079;51.092;3.458;2023-07-08T17:45:58;31.30;84.30
21834;DHT22;11079;51.092;3.458;2023-07-08T17:48:50;31.20;85.20
21834;DHT22;11079;51.092;3.458;2023-07-08T17:51:23;31.30;85.80
21834;DHT22;11079;51.092;3.458;2023-07-08T17:54:26;31.40;86.40
21834;DHT22;11079;51.092;3.458;2023-07-08T17:57:12;31.40;86.20
21834;DHT22;11079;51.092;3.458;2023-07-08T18:00:09;31.40;86.40
21834;DHT22;11079;51.092;3.458;2023-07-08T18:02:44;31.50;86.50
21834;DHT22;11079;51.092;3.458;2023-07-08T18:06:00;31.30;87.20
21834;DHT22;11079;51.092;3.458;2023-07-08T18:08:38;31.20;87.80
21834;DHT22;11079;51.092;3.458;2023-07-08T18:11:09;31.20;87.70
21834;DHT22;11079;51.092;3.458;2023-07-08T18:13:47;31.10;89.10
21834;DHT22;11079;51.092;3.458;2023-07-08T18:16:20;31.00;90.10
21834;DHT22;11079;51.092;3.458;2023-07-08T18:18:48;30.80;90.60
21834;DHT22;11079;51.092;3.458;2023-07-08T18:21:21;30.80;91.00
21834;DHT22;11079;51.092;3.458;2023-07-08T18:23:53;30.70;91.20
21834;DHT22;11079;51.092;3.458;2023-07-08T18:26:30;30.60;91.20
21834;DHT22;11079;51.092;3.458;2023-07-08T18:28:58;30.60;91.60
21834;DHT22;11079;51.092;3.458;2023-07-08T18:31:41;30.60;91.90
21834;DHT22;11079;51.092;3.458;2023-07-08T18:34:10;30.60;92.70
21834;DHT22;11079;51.092;3.458;2023-07-08T18:36:39;30.30;92.70
21834;DHT22;11079;51.092;3.458;2023-07-08T18:39:11;30.30;93.20
21834;DHT22;11079;51.092;3.458;2023-07-08T18:41:45;30.10;93.30
21834;DHT22;11079;51.092;3.458;2023-07-08T18:44:31;30.00;94.40
21834;DHT22;11079;51.092;3.458;2023-07-08T18:47:09;29.90;95.70
21834;DHT22;11079;51.092;3.458;2023-07-08T18:49:35;29.70;96.50
21834;DHT22;11079;51.092;3.458;2023-07-08T18:52:02;29.50;97.50
21834;DHT22;11079;51.092;3.458;2023-07-08T18:54:29;29.30;98.90
21834;DHT22;11079;51.092;3.458;2023-07-08T18:56:54;29.00;99.90
21834;DHT22;11079;51.092;3.458;2023-07-08T18:59:21;28.80;99.90
21834;DHT22;11079;51.092;3.458;2023-07-08T19:01:49;28.50;99.90
21834;DHT22;11079;51.092;3.458;2023-07-08T19:04:21;28.50;99.90
21834;DHT22;11079;51.092;3.458;2023-07-08T19:06:48;28.50;99.90
21834;DHT22;11079;51.092;3.458;2023-07-08T19:09:14;28.40;99.90
21834;DHT22;11079;51.092;3.458;2023-07-08T19:11:41;28.40;99.90
21834;DHT22;11079;51.092;3.458;2023-07-08T19:14:14;28.40;99.90
21834;DHT22;11079;51.092;3.458;2023-07-08T19:16:41;28.30;99.90
21834;DHT22;11079;51.092;3.458;2023-07-08T19:19:07;28.20;99.90
21834;DHT22;11079;51.092;3.458;2023-07-08T19:21:33;28.10;99.90
21834;DHT22;11079;51.092;3.458;2023-07-08T19:23:59;28.20;99.90
21834;DHT22;11079;51.092;3.458;2023-07-08T19:26:25;28.10;99.90
21834;DHT22;11079;51.092;3.458;2023-07-08T19:28:52;28.00;99.90
21834;DHT22;11079;51.092;3.458;2023-07-08T19:31:22;27.80;99.90
21834;DHT22;11079;51.092;3.458;2023-07-08T19:33:49;27.70;99.90
21834;DHT22;11079;51.092;3.458;2023-07-08T19:36:16;27.60;99.90
21834;DHT22;11079;51.092;3.458;2023-07-08T19:38:45;27.40;99.90
21834;DHT22;11079;51.092;3.458;2023-07-08T19:41:11;27.20;99.90
21834;DHT22;11079;51.092;3.458;2023-07-08T19:43:41;27.00;99.90
21834;DHT22;11079;51.092;3.458;2023-07-08T19:46:14;26.90;99.90
21834;DHT22;11079;51.092;3.458;2023-07-08T19:48:44;26.80;99.90
21834;DHT22;11079;51.092;3.458;2023-07-08T19:51:10;26.70;99.90
21834;DHT22;11079;51.092;3.458;2023-07-08T19:53:36;26.70;99.90
21834;DHT22;11079;51.092;3.458;2023-07-08T19:56:14;26.50;99.90
21834;DHT22;11079;51.092;3.458;2023-07-08T19:58:42;26.40;99.90
21834;DHT22;11079;51.092;3.458;2023-07-08T20:01:07;26.40;99.90
21834;DHT22;11079;51.092;3.458;2023-07-08T20:03:34;26.20;99.90
21834;DHT22;11079;51.092;3.458;2023-07-08T20:08:46;25.80;99.90